createdAt,value
2022-07-29T00:00:34.527Z,22.20
2022-07-29T00:08:23.273Z,22.20
2022-07-29T00:18:11.252Z,22.30
2022-07-29T00:29:06.366Z,20.60
2022-07-29T00:43:26.115Z,21.70
2022-07-29T00:45:55.878Z,21.80
2022-07-29T00:55:50.550Z,25.50
2022-07-29T01:00:49.749Z,21.30
2022-07-29T01:03:19.459Z,21.40
2022-07-29T01:05:51.370Z,20.10
2022-07-29T01:08:33.714Z,21.30
2022-07-29T01:11:03.555Z,20.00
2022-07-29T01:13:34.526Z,21.20
2022-07-29T01:16:10.486Z,21.00
2022-07-29T01:18:44.226Z,21.10
2022-07-29T01:21:36.801Z,20.10
2022-07-29T01:24:25.735Z,20.80
2022-07-29T01:26:59.546Z,20.40
2022-07-29T01:29:35.934Z,21.00
2022-07-29T01:32:27.724Z,25.30
2022-07-29T01:35:03.551Z,20.70
2022-07-29T01:37:38.782Z,21.00
2022-07-29T01:40:16.012Z,21.00
2022-07-29T01:42:46.563Z,19.60
2022-07-29T01:45:40.861Z,20.20
2022-07-29T01:48:18.727Z,21.00
2022-07-29T01:50:56.055Z,20.90
2022-07-29T01:53:34.828Z,20.50
2022-07-29T01:56:08.612Z,20.20
2022-07-29T01:58:39.490Z,19.40
2022-07-29T02:01:12.352Z,22.60
2022-07-29T02:03:44.172Z,20.70
2022-07-29T02:06:14.431Z,20.80
2022-07-29T02:08:43.664Z,20.70
2022-07-29T02:20:02.341Z,20.60
2022-07-29T02:22:40.628Z,20.60
2022-07-29T02:29:37.615Z,20.60
2022-07-29T02:32:18.079Z,20.60
2022-07-29T02:34:48.581Z,20.60
2022-07-29T02:38:18.048Z,20.70
2022-07-29T02:40:48.965Z,20.60
2022-07-29T02:44:07.652Z,20.60
2022-07-29T03:09:18.256Z,20.70
2022-07-29T03:25:02.448Z,22.50
2022-07-29T03:31:49.706Z,20.50
2022-07-29T03:51:34.041Z,20.40
2022-07-29T04:06:45.447Z,20.20
2022-07-29T04:09:14.602Z,20.20
2022-07-29T04:12:02.220Z,20.20
2022-07-29T04:14:39.400Z,20.10
2022-07-29T04:21:49.881Z,20.00
2022-07-29T04:24:22.507Z,20.10
2022-07-29T04:36:41.183Z,20.20
2022-07-29T04:41:39.138Z,19.70
2022-07-29T04:46:37.734Z,19.80
2022-07-29T04:49:06.007Z,18.30
2022-07-29T04:51:34.087Z,19.70
2022-07-29T04:54:02.117Z,18.50
2022-07-29T04:56:30.282Z,20.50
2022-07-29T04:58:59.736Z,19.70
2022-07-29T05:01:27.895Z,17.60
2022-07-29T05:04:00.296Z,19.60
2022-07-29T05:06:29.184Z,20.60
2022-07-29T05:11:30.079Z,18.60
2022-07-29T05:14:00.052Z,19.90
2022-07-29T05:18:56.803Z,19.70
2022-07-29T05:21:24.964Z,19.60
2022-07-29T05:23:53.018Z,20.20
2022-07-29T05:26:21.127Z,18.20
2022-07-29T05:28:49.279Z,20.40
2022-07-29T05:31:21.345Z,20.60
2022-07-29T05:36:17.981Z,20.50
2022-07-29T05:38:46.139Z,19.70
2022-07-29T05:43:45.740Z,18.50
2022-07-29T05:48:44.529Z,20.50
2022-07-29T05:51:18.026Z,20.70
2022-07-29T05:53:54.103Z,20.70
2022-07-29T05:56:39.071Z,20.70
2022-07-29T05:59:15.575Z,20.70
2022-07-29T06:01:46.614Z,18.60
2022-07-29T06:07:51.664Z,20.80
2022-07-29T06:45:09.292Z,18.90
2022-07-29T07:07:58.026Z,21.20
2022-07-29T07:14:40.534Z,21.40
2022-07-29T07:38:25.402Z,21.90
2022-07-29T08:26:52.456Z,21.70
2022-07-29T08:29:20.493Z,20.50
2022-07-29T08:31:48.667Z,23.10
2022-07-29T08:34:16.741Z,21.70
2022-07-29T08:39:20.227Z,26.10
2022-07-29T08:41:48.793Z,22.60
2022-07-29T08:44:30.643Z,21.90
2022-07-29T08:46:59.559Z,22.90
2022-07-29T08:49:27.625Z,21.90
2022-07-29T08:51:57.765Z,25.30
2022-07-29T08:54:28.122Z,21.20
2022-07-29T08:56:57.893Z,21.40
2022-07-29T08:59:29.409Z,22.40
2022-07-29T09:02:01.670Z,23.10
2022-07-29T09:04:36.369Z,22.80
2022-07-29T09:07:06.706Z,22.90
2022-07-29T09:09:38.919Z,23.20
2022-07-29T09:12:09.131Z,22.60
2022-07-29T09:14:37.228Z,21.70
2022-07-29T09:17:06.834Z,21.70
2022-07-29T09:19:36.795Z,22.20
2022-07-29T09:22:07.758Z,22.70
2022-07-29T09:24:42.474Z,23.60
2022-07-29T09:27:13.308Z,21.60
2022-07-29T09:29:41.668Z,23.60
2022-07-29T09:32:12.085Z,21.90
2022-07-29T09:34:40.462Z,26.60
2022-07-29T09:37:09.417Z,23.10
2022-07-29T09:39:46.441Z,22.20
2022-07-29T09:42:16.783Z,22.00
2022-07-29T09:44:49.345Z,22.10
2022-07-29T09:47:19.127Z,24.00
2022-07-29T09:49:55.500Z,24.00
2022-07-29T09:54:54.982Z,23.20
2022-07-29T09:57:30.962Z,21.80
2022-07-29T10:00:01.301Z,22.70
2022-07-29T10:02:33.883Z,24.50
2022-07-29T10:05:03.476Z,23.10
2022-07-29T10:07:49.315Z,24.30
2022-07-29T10:10:25.908Z,23.80
2022-07-29T10:12:56.379Z,24.00
2022-07-29T10:15:25.996Z,24.50
2022-07-29T10:17:54.498Z,23.80
2022-07-29T10:20:23.146Z,24.80
2022-07-29T10:22:53.552Z,24.40
2022-07-29T10:25:24.219Z,26.00
2022-07-29T10:27:53.337Z,25.90
2022-07-29T10:30:23.972Z,26.10
2022-07-29T10:33:23.974Z,25.80
2022-07-29T10:36:14.296Z,25.40
2022-07-29T10:38:50.702Z,26.10
2022-07-29T10:41:47.783Z,26.40
2022-07-29T10:44:23.279Z,24.70
2022-07-29T10:46:53.319Z,25.10
2022-07-29T10:49:25.006Z,26.20
2022-07-29T10:51:55.929Z,29.00
2022-07-29T10:54:46.160Z,25.70
2022-07-29T10:57:25.905Z,25.30
2022-07-29T11:00:30.976Z,26.90
2022-07-29T11:05:39.952Z,26.00
2022-07-29T11:08:26.761Z,27.10
2022-07-29T11:11:43.961Z,29.30
2022-07-29T11:15:02.649Z,26.70
2022-07-29T11:17:47.048Z,27.20
2022-07-29T11:20:37.837Z,27.60
2022-07-29T11:23:34.100Z,25.80
2022-07-29T11:30:54.080Z,26.00
2022-07-29T11:33:54.100Z,27.70
2022-07-29T11:36:27.958Z,26.40
2022-07-29T11:42:44.435Z,27.00
2022-07-29T11:45:41.243Z,28.90
2022-07-29T11:48:32.163Z,28.10
2022-07-29T11:55:14.344Z,27.80
2022-07-29T12:02:25.219Z,27.70
2022-07-29T12:05:14.490Z,27.70
2022-07-29T12:12:06.559Z,27.90
2022-07-29T12:27:15.523Z,27.70
2022-07-29T12:29:48.909Z,27.70
2022-07-29T12:32:19.698Z,27.70
2022-07-29T12:34:52.211Z,27.70
2022-07-29T12:37:35.766Z,27.70
2022-07-29T12:40:17.430Z,27.80
2022-07-29T12:43:18.205Z,28.80
2022-07-29T12:45:53.510Z,25.80
2022-07-29T12:48:38.456Z,26.80
2022-07-29T12:51:10.056Z,27.30
2022-07-29T12:53:44.447Z,27.20
2022-07-29T12:56:41.889Z,27.30
2022-07-29T12:59:17.872Z,26.70
2022-07-29T13:01:50.104Z,26.70
2022-07-29T13:04:28.017Z,27.00
2022-07-29T13:07:02.315Z,25.80
2022-07-29T13:09:39.775Z,25.10
2022-07-29T13:12:11.061Z,25.00
2022-07-29T13:14:41.046Z,26.60
2022-07-29T13:17:13.107Z,25.80
2022-07-29T13:19:42.746Z,24.60
2022-07-29T13:22:11.472Z,26.80
2022-07-29T13:24:51.288Z,26.60
2022-07-29T13:27:20.158Z,26.80
2022-07-29T13:29:49.838Z,22.40
2022-07-29T13:32:19.518Z,26.10
2022-07-29T13:34:56.489Z,26.30
2022-07-29T13:37:24.623Z,26.50
2022-07-29T13:39:53.566Z,25.50
2022-07-29T13:42:21.816Z,26.50
2022-07-29T13:44:51.808Z,25.00
2022-07-29T13:47:21.399Z,25.90
2022-07-29T13:49:49.993Z,25.80
2022-07-29T13:52:18.724Z,26.50
2022-07-29T13:54:46.830Z,24.60
2022-07-29T13:57:15.384Z,24.90
2022-07-29T13:59:44.216Z,25.80
2022-07-29T14:02:13.541Z,26.50
2022-07-29T14:04:45.326Z,26.40
2022-07-29T14:09:44.764Z,25.00
2022-07-29T14:12:13.382Z,26.50
2022-07-29T14:14:42.480Z,25.50
2022-07-29T14:17:11.371Z,26.40
2022-07-29T14:22:11.075Z,25.20
2022-07-29T14:24:40.005Z,25.20
2022-07-29T14:27:37.346Z,26.20
2022-07-29T14:30:27.053Z,27.80
2022-07-29T14:32:58.317Z,26.10
2022-07-29T14:35:26.588Z,26.20
2022-07-29T14:37:56.421Z,25.30
2022-07-29T14:40:26.764Z,25.60
2022-07-29T14:46:01.987Z,26.60
2022-07-29T14:48:38.060Z,25.40
2022-07-29T14:51:12.824Z,26.10
2022-07-29T14:53:42.580Z,29.90
2022-07-29T14:56:35.633Z,30.10
2022-07-29T14:58:59.150Z,27.00
2022-07-29T15:01:27.425Z,27.00
2022-07-29T15:03:59.405Z,25.80
2022-07-29T15:06:28.124Z,26.70
2022-07-29T15:08:57.630Z,26.60
2022-07-29T15:11:26.475Z,26.80
2022-07-29T15:13:55.150Z,29.90
2022-07-29T15:18:57.713Z,26.10
2022-07-29T15:21:29.573Z,25.10
2022-07-29T15:23:59.018Z,26.50
2022-07-29T15:26:28.278Z,25.60
2022-07-29T15:28:57.375Z,26.70
2022-07-29T15:31:25.486Z,26.10
2022-07-29T15:33:58.083Z,26.50
2022-07-29T15:36:51.002Z,24.90
2022-07-29T15:39:16.964Z,25.70
2022-07-29T15:41:45.187Z,25.40
2022-07-29T15:44:13.773Z,26.50
2022-07-29T15:46:59.718Z,26.40
2022-07-29T15:49:48.757Z,24.60
2022-07-29T15:52:24.718Z,25.50
2022-07-29T15:54:57.608Z,24.90
2022-07-29T15:59:54.315Z,25.60
2022-07-29T16:02:22.454Z,25.70
2022-07-29T16:04:50.640Z,25.30
2022-07-29T16:07:19.054Z,24.60
2022-07-29T16:12:22.610Z,25.30
2022-07-29T16:14:51.984Z,24.60
2022-07-29T16:17:20.725Z,25.90
2022-07-29T16:19:49.435Z,24.50
2022-07-29T16:22:17.563Z,24.20
2022-07-29T16:27:14.027Z,24.10
2022-07-29T16:29:43.722Z,25.40
2022-07-29T16:34:41.089Z,25.20
2022-07-29T16:37:09.252Z,25.20
2022-07-29T16:39:37.274Z,23.60
2022-07-29T16:42:05.813Z,23.50
2022-07-29T16:44:34.840Z,23.40
2022-07-29T16:47:05.094Z,24.40
2022-07-29T16:49:33.446Z,23.70
2022-07-29T16:52:01.820Z,23.20
2022-07-29T16:54:29.936Z,23.90
2022-07-29T16:59:29.599Z,22.20
2022-07-29T17:04:28.695Z,23.10
2022-07-29T17:06:57.032Z,23.10
2022-07-29T17:11:55.130Z,21.40
2022-07-29T17:14:25.590Z,23.10
2022-07-29T17:19:32.341Z,21.40
2022-07-29T17:22:10.086Z,20.80
2022-07-29T17:24:41.196Z,21.20
2022-07-29T17:27:09.906Z,26.30
2022-07-29T17:29:39.032Z,21.70
2022-07-29T17:32:09.027Z,24.40
2022-07-29T17:34:38.957Z,22.20
2022-07-29T17:37:09.390Z,20.10
2022-07-29T17:39:37.573Z,21.50
2022-07-29T17:42:06.553Z,21.70
2022-07-29T17:44:36.418Z,21.00
2022-07-29T17:47:05.156Z,20.30
2022-07-29T17:49:36.251Z,22.10
2022-07-29T17:52:07.295Z,26.40
2022-07-29T17:54:35.452Z,21.80
2022-07-29T17:57:03.503Z,21.80
2022-07-29T17:59:31.686Z,21.40
2022-07-29T18:01:59.863Z,21.00
2022-07-29T18:04:28.664Z,22.40
2022-07-29T18:06:57.138Z,21.40
2022-07-29T18:09:26.856Z,21.60
2022-07-29T18:11:55.057Z,21.30
2022-07-29T18:14:23.096Z,21.80
2022-07-29T18:16:51.257Z,17.80
2022-07-29T18:19:19.391Z,21.30
2022-07-29T18:21:54.615Z,20.30
2022-07-29T18:26:56.524Z,21.50
2022-07-29T18:29:24.912Z,21.20
2022-07-29T18:31:52.954Z,25.80
2022-07-29T18:34:21.000Z,21.40
2022-07-29T18:36:49.042Z,21.30
2022-07-29T18:39:20.560Z,22.20
2022-07-29T18:41:50.679Z,21.30
2022-07-29T18:44:22.108Z,21.20
2022-07-29T18:46:51.686Z,25.60
2022-07-29T18:49:20.336Z,21.00
2022-07-29T18:51:48.710Z,19.40
2022-07-29T18:54:17.579Z,20.20
2022-07-29T18:56:46.237Z,20.10
2022-07-29T18:59:16.856Z,21.40
2022-07-29T19:01:46.486Z,20.50
2022-07-29T19:04:14.796Z,20.60
2022-07-29T19:06:42.930Z,21.00
2022-07-29T19:11:40.032Z,18.90
2022-07-29T19:14:08.901Z,21.10
2022-07-29T19:19:07.445Z,20.10
2022-07-29T19:24:06.922Z,20.20
2022-07-29T19:26:39.340Z,20.00
2022-07-29T19:34:06.041Z,19.30
2022-07-29T19:39:44.221Z,21.00
2022-07-29T19:47:09.761Z,20.80
2022-07-29T19:49:40.546Z,19.20
2022-07-29T19:55:07.063Z,19.00
2022-07-29T20:00:11.374Z,19.20
2022-07-29T20:02:41.605Z,20.10
2022-07-29T20:05:14.313Z,19.50
2022-07-29T20:07:46.987Z,19.10
2022-07-29T20:10:15.917Z,19.90
2022-07-29T20:12:44.034Z,19.90
2022-07-29T20:15:16.587Z,18.80
2022-07-29T20:17:45.072Z,19.60
2022-07-29T20:20:15.249Z,25.20
2022-07-29T20:25:20.132Z,19.70
2022-07-29T20:35:19.801Z,20.30
2022-07-29T20:45:21.258Z,19.30
2022-07-29T20:47:50.682Z,20.50
2022-07-29T20:50:23.842Z,24.90
2022-07-29T20:52:53.167Z,20.60
2022-07-29T20:55:21.657Z,19.70
2022-07-29T20:57:49.831Z,19.20
2022-07-29T21:00:18.288Z,20.70
2022-07-29T21:02:47.378Z,18.50
2022-07-29T21:05:15.924Z,19.00
2022-07-29T21:07:45.448Z,20.60
2022-07-29T21:12:43.187Z,18.80
2022-07-29T21:15:13.478Z,19.60
2022-07-29T21:20:19.290Z,20.60
2022-07-29T21:22:49.075Z,20.30
2022-07-29T21:25:35.241Z,20.50
2022-07-29T21:38:41.504Z,20.60
2022-07-29T21:46:24.868Z,20.60
2022-07-29T21:51:47.103Z,20.40
2022-07-29T21:54:19.813Z,20.40
2022-07-29T21:59:19.992Z,20.10
2022-07-29T22:06:45.404Z,18.30
2022-07-29T22:11:43.992Z,20.30
2022-07-29T22:14:37.479Z,20.30
2022-07-29T22:17:06.315Z,19.80
2022-07-29T22:27:02.289Z,18.60
2022-07-29T22:29:30.911Z,19.00
2022-07-29T22:42:04.884Z,19.00
2022-07-29T22:44:33.046Z,19.90
2022-07-29T22:47:01.681Z,20.60
2022-07-29T22:51:58.819Z,20.20
2022-07-29T22:54:27.021Z,18.60
2022-07-29T22:56:55.093Z,20.10
2022-07-29T22:59:24.620Z,20.40
2022-07-29T23:01:52.746Z,18.60
2022-07-29T23:04:23.674Z,18.70
2022-07-29T23:06:52.065Z,20.00
2022-07-29T23:11:48.755Z,20.30
2022-07-29T23:16:47.366Z,22.90
2022-07-29T23:19:15.506Z,18.50
2022-07-29T23:24:12.065Z,19.90
2022-07-29T23:29:11.053Z,20.60
2022-07-29T23:31:46.782Z,19.70
2022-07-29T23:34:17.911Z,20.40
2022-07-29T23:36:45.987Z,20.20
2022-07-29T23:39:14.118Z,20.30
2022-07-29T23:46:39.344Z,19.00
2022-07-29T23:49:07.716Z,19.30
2022-07-29T23:51:37.238Z,19.20
2022-07-29T23:54:05.626Z,19.60
2022-07-29T23:59:07.432Z,19.20
